Time;durP1;ratioP1;P1;durP2;ratioP2;P2;SDS_P1;SDS_P2;PMS_P1;PMS_P2;Temp;Humidity;BMP_temperature;BMP_pressure;BME280_temperature;BME280_humidity;BME280_pressure;Samples;Min_cycle;Max_cycle;Signal;HPM_P1;HPM_P2
2023/09/21 00:01:48;;;;;;;10.67;8.30;;;13.50;99.90;;;;;;5054280;28;20198;-69
2023/09/21 00:04:15;;;;;;;12.33;8.30;;;13.50;99.90;;;;;;5054489;28;20543;-69
2023/09/21 00:06:43;;;;;;;10.07;7.97;;;13.50;99.90;;;;;;5054252;28;20201;-69
2023/09/21 00:09:10;;;;;;;10.93;8.50;;;13.50;99.90;;;;;;5054332;28;20205;-68
2023/09/21 00:11:40;;;;;;;10.73;7.87;;;13.50;99.90;;;;;;5054036;28;20621;-69
2023/09/21 00:14:06;;;;;;;9.50;8.60;;;13.50;99.90;;;;;;5054068;28;20305;-69
2023/09/21 00:16:33;;;;;;;8.80;7.43;;;13.40;99.90;;;;;;5056296;28;20194;-69
2023/09/21 00:19:06;;;;;;;9.83;8.00;;;13.40;99.90;;;;;;5054012;28;20212;-70
2023/09/21 00:21:33;;;;;;;8.33;7.50;;;13.40;99.90;;;;;;5054061;28;20289;-70
2023/09/21 00:24:15;;;;;;;8.90;7.80;;;13.40;99.90;;;;;;5053946;28;20212;-70
2023/09/21 00:26:46;;;;;;;9.83;7.73;;;13.40;99.90;;;;;;5053861;28;20645;-70
2023/09/21 00:29:12;;;;;;;10.20;7.40;;;13.40;99.90;;;;;;5052771;28;20270;-70
2023/09/21 00:31:39;;;;;;;8.30;6.60;;;13.30;99.90;;;;;;5053940;28;20197;-69
2023/09/21 00:34:06;;;;;;;8.07;7.27;;;13.30;99.90;;;;;;5053710;28;20725;-70
2023/09/21 00:36:33;;;;;;;7.87;7.17;;;13.30;99.90;;;;;;5053492;28;20312;-70
2023/09/21 00:39:01;;;;;;;7.63;6.93;;;13.30;99.90;;;;;;5053720;28;20259;-70
2023/09/21 00:41:27;;;;;;;8.23;7.07;;;13.30;99.90;;;;;;5053449;28;20201;-70
2023/09/21 00:43:54;;;;;;;10.00;7.73;;;13.30;99.90;;;;;;5053490;28;20727;-70
2023/09/21 00:46:21;;;;;;;8.90;7.17;;;13.20;99.90;;;;;;5053578;28;20255;-70
2023/09/21 00:48:50;;;;;;;8.47;7.57;;;13.10;99.90;;;;;;5053546;28;20206;-70
2023/09/21 00:51:17;;;;;;;8.90;8.07;;;13.10;99.90;;;;;;5053462;28;20240;-69
2023/09/21 00:53:46;;;;;;;8.90;8.00;;;13.10;99.90;;;;;;5053411;28;20197;-70
2023/09/21 00:56:18;;;;;;;8.97;8.07;;;13.10;99.90;;;;;;5053180;28;20641;-69
2023/09/21 00:58:48;;;;;;;8.20;7.47;;;13.10;99.90;;;;;;5053431;28;20256;-70
2023/09/21 01:01:16;;;;;;;9.37;8.47;;;13.00;99.90;;;;;;5053341;28;20202;-70
2023/09/21 01:03:43;;;;;;;11.33;8.57;;;13.00;99.90;;;;;;5053278;28;20201;-70
2023/09/21 01:06:14;;;;;;;9.40;8.50;;;13.00;99.90;;;;;;5053194;28;20415;-69
2023/09/21 01:08:41;;;;;;;9.63;8.73;;;12.90;99.90;;;;;;5053070;28;20233;-70
2023/09/21 01:11:10;;;;;;;9.50;8.53;;;12.90;99.90;;;;;;5053196;28;20684;-70
2023/09/21 01:13:38;;;;;;;8.90;8.00;;;12.80;99.90;;;;;;5053157;28;20548;-70
2023/09/21 01:16:06;;;;;;;8.70;7.83;;;12.80;99.90;;;;;;5053108;28;20288;-70
2023/09/21 01:18:33;;;;;;;8.53;7.80;;;12.80;99.90;;;;;;5052937;28;20233;-70
2023/09/21 01:21:04;;;;;;;10.27;7.70;;;12.80;99.90;;;;;;5052918;28;20231;-69
2023/09/21 01:23:41;;;;;;;10.23;8.63;;;12.80;99.90;;;;;;5052849;28;20683;-69
2023/09/21 01:26:08;;;;;;;10.27;8.90;;;12.70;99.90;;;;;;5052984;28;20243;-69
2023/09/21 01:28:36;;;;;;;10.60;8.23;;;12.70;99.90;;;;;;5052993;28;20205;-68
2023/09/21 01:31:05;;;;;;;9.40;8.40;;;12.70;99.90;;;;;;5052675;28;20624;-70
2023/09/21 01:33:33;;;;;;;9.73;8.43;;;12.70;99.90;;;;;;5052766;28;20229;-70
2023/09/21 01:35:59;;;;;;;9.63;8.73;;;12.70;99.90;;;;;;5052584;28;20198;-70
2023/09/21 01:38:27;;;;;;;10.53;9.00;;;12.70;99.90;;;;;;5052801;28;20232;-69
2023/09/21 01:40:55;;;;;;;9.60;8.70;;;12.70;99.90;;;;;;5052416;28;20212;-69
2023/09/21 01:43:22;;;;;;;8.97;8.07;;;12.70;99.90;;;;;;5052711;28;20332;-69
2023/09/21 01:45:50;;;;;;;8.60;7.80;;;12.60;99.90;;;;;;5052564;28;20194;-69
2023/09/21 01:48:18;;;;;;;9.83;8.83;;;12.50;99.90;;;;;;5052817;28;20207;-68
2023/09/21 01:50:47;;;;;;;9.27;8.30;;;12.50;99.90;;;;;;5052735;28;20198;-69
2023/09/21 01:53:14;;;;;;;9.90;9.00;;;12.60;99.90;;;;;;5052640;28;20198;-69
2023/09/21 01:55:41;;;;;;;10.27;9.37;;;12.60;99.90;;;;;;5052642;28;20205;-69
2023/09/21 01:58:10;;;;;;;10.23;9.23;;;12.60;99.90;;;;;;5052523;28;20229;-69
2023/09/21 02:00:39;;;;;;;10.57;8.77;;;12.60;99.90;;;;;;5052320;28;20194;-69
2023/09/21 02:03:09;;;;;;;9.77;8.77;;;12.40;99.90;;;;;;5052908;28;20198;-69
2023/09/21 02:05:36;;;;;;;10.90;9.27;;;12.40;99.90;;;;;;5052335;28;20653;-69
2023/09/21 02:08:04;;;;;;;10.00;9.10;;;12.50;99.90;;;;;;5052449;28;20201;-69
2023/09/21 02:10:31;;;;;;;10.27;9.30;;;12.40;99.90;;;;;;5052341;28;20194;-69
2023/09/21 02:12:59;;;;;;;10.70;9.60;;;12.50;99.90;;;;;;5052370;28;20228;-69
2023/09/21 02:15:29;;;;;;;9.90;8.80;;;12.60;99.90;;;;;;5052257;28;20229;-69
2023/09/21 02:17:56;;;;;;;10.53;9.43;;;12.50;99.90;;;;;;5052432;28;20266;-69
2023/09/21 02:20:23;;;;;;;10.73;9.63;;;12.40;99.90;;;;;;5052408;28;20205;-69
2023/09/21 02:22:51;;;;;;;10.53;9.53;;;12.40;99.90;;;;;;5052318;28;20780;-69
2023/09/21 02:25:19;;;;;;;10.40;9.40;;;12.40;99.90;;;;;;5052178;28;20649;-69
2023/09/21 02:27:47;;;;;;;9.70;8.73;;;12.50;99.90;;;;;;5052159;28;20285;-69
2023/09/21 02:30:16;;;;;;;9.80;8.80;;;12.40;99.90;;;;;;5052132;28;20622;-69
2023/09/21 02:32:48;;;;;;;9.57;8.67;;;12.40;99.90;;;;;;5052202;28;20200;-69
2023/09/21 02:35:16;;;;;;;12.70;9.17;;;12.40;99.90;;;;;;5052257;28;20291;-69
2023/09/21 02:37:44;;;;;;;12.93;9.70;;;12.30;99.90;;;;;;5051878;28;20522;-69
2023/09/21 02:40:14;;;;;;;10.93;9.83;;;12.30;99.90;;;;;;5052080;28;20208;-70
2023/09/21 02:42:42;;;;;;;10.17;9.20;;;12.20;99.90;;;;;;5052260;28;20194;-70
2023/09/21 02:45:10;;;;;;;10.57;9.50;;;12.30;99.90;;;;;;5052127;28;20285;-69
2023/09/21 02:47:37;;;;;;;11.70;9.87;;;12.20;99.90;;;;;;5052058;28;20300;-69
2023/09/21 02:50:14;;;;;;;11.37;9.30;;;12.20;99.90;;;;;;5052057;28;20260;-69
2023/09/21 02:52:46;;;;;;;10.33;9.33;;;12.10;99.90;;;;;;5053641;28;20207;-68
2023/09/21 02:55:13;;;;;;;10.77;9.40;;;12.10;99.90;;;;;;5055841;28;20200;-69
2023/09/21 02:57:40;;;;;;;11.80;9.87;;;12.10;99.90;;;;;;5055535;28;20222;-69
2023/09/21 03:00:20;;;;;;;11.20;10.10;;;12.10;99.90;;;;;;5055601;28;20232;-69
2023/09/21 03:02:48;;;;;;;11.70;10.23;;;12.10;99.90;;;;;;5055438;28;20198;-69
2023/09/21 03:05:17;;;;;;;13.43;10.67;;;12.10;99.90;;;;;;5055295;28;20204;-68
2023/09/21 03:07:44;;;;;;;11.43;10.23;;;12.10;99.90;;;;;;5055533;28;20198;-68
2023/09/21 03:10:12;;;;;;;12.17;9.93;;;12.10;99.90;;;;;;5055423;28;20205;-68
2023/09/21 03:12:38;;;;;;;12.33;9.93;;;12.00;99.90;;;;;;5055308;28;20293;-68
2023/09/21 03:15:13;;;;;;;10.67;9.53;;;12.00;99.90;;;;;;5055211;28;20202;-69
2023/09/21 03:17:40;;;;;;;11.43;9.90;;;12.00;99.90;;;;;;5055122;28;20252;-69
2023/09/21 03:20:09;;;;;;;11.10;9.60;;;12.00;99.90;;;;;;5055362;28;20193;-69
2023/09/21 03:22:38;;;;;;;12.53;10.73;;;12.10;99.90;;;;;;5055197;28;20286;-69
2023/09/21 03:25:11;;;;;;;11.70;10.50;;;12.10;99.90;;;;;;5055050;28;20288;-69
2023/09/21 03:27:38;;;;;;;13.73;10.43;;;12.00;99.90;;;;;;5055133;28;20610;-69
2023/09/21 03:30:06;;;;;;;11.90;10.47;;;12.00;99.90;;;;;;5054954;28;20220;-69
2023/09/21 03:32:33;;;;;;;11.53;10.33;;;11.90;99.90;;;;;;5055052;28;20197;-69
2023/09/21 03:35:00;;;;;;;11.43;10.23;;;11.90;99.90;;;;;;5055057;28;20200;-69
2023/09/21 03:37:26;;;;;;;13.30;10.70;;;11.90;99.90;;;;;;5054490;28;20767;-69
2023/09/21 03:39:54;;;;;;;13.33;10.97;;;11.80;99.90;;;;;;5054923;28;20205;-68
2023/09/21 03:42:22;;;;;;;14.47;10.53;;;11.90;99.90;;;;;;5054688;28;20656;-69
2023/09/21 03:44:49;;;;;;;12.67;10.70;;;12.00;99.90;;;;;;5054558;28;20600;-69
2023/09/21 03:47:17;;;;;;;14.50;11.40;;;11.90;99.90;;;;;;5054987;28;20198;-69
2023/09/21 03:49:44;;;;;;;15.50;11.90;;;11.90;99.90;;;;;;5054915;28;20255;-69
2023/09/21 03:52:15;;;;;;;13.27;11.67;;;11.90;99.90;;;;;;5054534;28;20202;-69
2023/09/21 03:54:42;;;;;;;16.27;11.30;;;11.90;99.90;;;;;;5054593;28;20292;-69
2023/09/21 03:57:14;;;;;;;12.40;10.63;;;11.90;99.90;;;;;;5054418;28;20215;-69
2023/09/21 03:59:41;;;;;;;14.13;10.93;;;12.00;99.90;;;;;;5054185;28;20643;-69
2023/09/21 04:02:08;;;;;;;10.70;9.70;;;12.10;99.90;;;;;;5054479;28;20208;-69
2023/09/21 04:04:34;;;;;;;10.77;9.10;;;12.10;99.90;;;;;;5054175;28;20293;-68
2023/09/21 04:07:01;;;;;;;11.63;9.80;;;12.10;99.90;;;;;;5054290;28;20205;-69
2023/09/21 04:09:28;;;;;;;12.43;11.03;;;12.10;99.90;;;;;;5054034;28;20630;-69
2023/09/21 04:11:57;;;;;;;13.43;10.53;;;12.10;99.90;;;;;;5054087;28;20202;-69
2023/09/21 04:14:25;;;;;;;16.57;11.50;;;12.10;99.90;;;;;;5054155;28;20201;-69
2023/09/21 04:16:52;;;;;;;13.00;10.63;;;12.20;99.90;;;;;;5054211;28;20205;-69
2023/09/21 04:19:19;;;;;;;13.50;11.33;;;12.20;99.90;;;;;;5053965;28;20291;-69
2023/09/21 04:21:46;;;;;;;12.57;9.80;;;12.20;99.90;;;;;;5053856;28;20675;-69
2023/09/21 04:24:14;;;;;;;14.20;10.10;;;12.30;99.90;;;;;;5053715;28;20193;-68
2023/09/21 04:26:41;;;;;;;12.10;10.90;;;12.30;99.90;;;;;;5053907;28;20621;-69
2023/09/21 04:29:09;;;;;;;11.27;9.97;;;12.30;99.90;;;;;;5053865;28;20686;-69
2023/09/21 04:31:38;;;;;;;10.57;9.50;;;12.30;99.90;;;;;;5053802;28;20193;-69
2023/09/21 04:34:05;;;;;;;11.37;9.23;;;12.30;99.90;;;;;;5053735;28;20225;-69
2023/09/21 04:36:31;;;;;;;11.90;9.37;;;12.40;99.90;;;;;;5053534;28;20236;-69
2023/09/21 04:38:59;;;;;;;10.80;9.70;;;12.40;99.90;;;;;;5053382;28;20305;-69
2023/09/21 04:41:27;;;;;;;13.20;10.47;;;12.40;99.90;;;;;;5053650;28;20557;-69
2023/09/21 04:43:55;;;;;;;13.43;10.73;;;12.40;99.90;;;;;;5053636;28;20200;-69
2023/09/21 04:46:21;;;;;;;12.27;10.27;;;12.40;99.90;;;;;;5053481;28;20201;-68
2023/09/21 04:48:49;;;;;;;13.63;10.70;;;12.40;99.90;;;;;;5052618;28;20259;-69
2023/09/21 04:51:17;;;;;;;12.33;9.70;;;12.40;99.90;;;;;;5056452;28;20200;-69
2023/09/21 04:53:44;;;;;;;12.90;10.13;;;12.40;99.90;;;;;;5073552;28;20607;-69
2023/09/21 04:56:11;;;;;;;12.27;9.60;;;12.40;99.90;;;;;;5073479;28;20197;-71
2023/09/21 04:58:37;;;;;;;11.93;9.60;;;12.40;99.90;;;;;;5073311;28;20225;-69
2023/09/21 05:01:10;;;;;;;10.30;9.30;;;12.40;99.90;;;;;;5073220;28;20197;-68
2023/09/21 05:03:37;;;;;;;11.93;9.27;;;12.40;99.90;;;;;;5073197;28;20616;-68
2023/09/21 05:06:06;;;;;;;10.03;8.93;;;12.50;99.90;;;;;;5073150;28;20197;-69
2023/09/21 05:08:36;;;;;;;10.57;9.47;;;12.50;99.90;;;;;;5073025;28;20560;-70
2023/09/21 05:11:04;;;;;;;10.27;9.23;;;12.50;99.90;;;;;;5073082;28;20243;-68
2023/09/21 05:13:31;;;;;;;11.13;9.60;;;12.50;99.90;;;;;;5073104;28;20203;-69
2023/09/21 05:15:57;;;;;;;11.17;10.03;;;12.50;99.90;;;;;;5072152;28;20197;-69
2023/09/21 05:18:24;;;;;;;12.10;9.40;;;12.60;99.90;;;;;;5072803;28;20216;-69
2023/09/21 05:20:51;;;;;;;12.20;10.20;;;12.60;99.90;;;;;;5072752;28;20197;-69
2023/09/21 05:23:19;;;;;;;10.10;9.10;;;12.60;99.90;;;;;;5073045;28;20296;-69
2023/09/21 05:25:46;;;;;;;10.20;9.23;;;12.70;99.90;;;;;;5072878;28;20288;-69
2023/09/21 05:28:13;;;;;;;12.47;9.10;;;12.80;99.90;;;;;;5072896;28;20197;-69
2023/09/21 05:30:39;;;;;;;10.67;9.60;;;12.80;99.90;;;;;;5072735;28;20196;-69
2023/09/21 05:33:07;;;;;;;11.97;10.67;;;12.90;99.90;;;;;;5072517;28;20306;-68
2023/09/21 05:35:34;;;;;;;13.93;12.40;;;13.00;99.90;;;;;;5072785;28;20303;-68
2023/09/21 05:38:00;;;;;;;12.57;11.27;;;13.10;99.90;;;;;;5072287;28;20229;-68
2023/09/21 05:40:29;;;;;;;9.77;8.17;;;13.10;99.90;;;;;;5072606;28;20197;-68
2023/09/21 05:42:55;;;;;;;14.10;8.60;;;13.20;99.90;;;;;;5072299;28;20311;-69
2023/09/21 05:45:22;;;;;;;11.63;9.83;;;13.30;99.90;;;;;;5072154;28;20262;-69
2023/09/21 05:47:49;;;;;;;19.27;9.97;;;13.40;99.90;;;;;;5071961;28;20288;-69
2023/09/21 05:50:15;;;;;;;11.40;9.33;;;13.60;99.90;;;;;;5072507;28;20223;-69
2023/09/21 05:52:42;;;;;;;9.70;8.17;;;13.70;99.90;;;;;;5072280;28;20192;-69
2023/09/21 05:55:11;;;;;;;13.00;8.60;;;13.80;99.90;;;;;;5072434;28;20227;-69
2023/09/21 05:57:40;;;;;;;9.13;7.93;;;14.00;99.90;;;;;;5072341;28;20242;-70
2023/09/21 06:00:08;;;;;;;11.73;7.90;;;14.10;99.90;;;;;;5072059;28;20631;-70
2023/09/21 06:02:35;;;;;;;16.77;8.70;;;14.20;99.90;;;;;;5072216;28;20199;-70
2023/09/21 06:05:02;;;;;;;10.90;7.13;;;14.40;99.90;;;;;;5072449;28;20205;-70
2023/09/21 06:07:28;;;;;;;11.10;7.30;;;14.60;99.90;;;;;;5072349;28;20278;-71
2023/09/21 06:09:55;;;;;;;8.60;5.70;;;14.70;99.90;;;;;;5072311;28;20606;-68
2023/09/21 06:12:24;;;;;;;11.38;5.78;;;14.80;99.90;;;;;;5072125;28;20201;-70
2023/09/21 06:14:53;;;;;;;7.00;5.40;;;14.90;99.90;;;;;;5072061;28;20691;-68
2023/09/21 06:17:20;;;;;;;7.37;6.10;;;14.90;99.90;;;;;;5072030;28;20687;-69
2023/09/21 06:19:47;;;;;;;7.63;5.78;;;15.00;99.90;;;;;;5072122;28;20294;-69
2023/09/21 06:22:13;;;;;;;7.20;5.57;;;15.10;99.90;;;;;;5072213;28;20197;-68
2023/09/21 06:24:42;;;;;;;7.20;4.80;;;15.20;99.90;;;;;;5072062;28;20201;-68
2023/09/21 06:27:08;;;;;;;5.28;4.75;;;15.30;99.90;;;;;;5072990;28;20283;-69
2023/09/21 06:29:35;;;;;;;8.35;5.65;;;15.50;99.90;;;;;;5076223;28;20205;-69
2023/09/21 06:32:07;;;;;;;7.43;6.18;;;15.50;99.90;;;;;;5075995;28;20205;-69
2023/09/21 06:34:34;;;;;;;12.20;6.50;;;15.50;99.90;;;;;;5075699;28;20208;-69
2023/09/21 06:37:01;;;;;;;10.50;6.43;;;15.60;99.90;;;;;;5075750;28;20251;-70
2023/09/21 06:39:28;;;;;;;11.90;7.35;;;15.60;99.90;;;;;;5075771;28;20231;-70
2023/09/21 06:41:54;;;;;;;11.93;7.72;;;15.70;99.90;;;;;;5075610;28;20235;-70
2023/09/21 06:44:21;;;;;;;10.98;7.00;;;15.70;99.90;;;;;;5075719;28;20197;-70
2023/09/21 06:46:50;;;;;;;12.18;7.57;;;15.80;99.90;;;;;;5074436;28;20196;-69
2023/09/21 06:49:18;;;;;;;10.52;7.20;;;15.90;99.90;;;;;;5075657;28;20288;-70
2023/09/21 06:51:46;;;;;;;10.13;7.80;;;16.00;99.90;;;;;;5075504;28;20193;-70
2023/09/21 06:54:13;;;;;;;12.13;7.43;;;16.20;99.90;;;;;;5075411;28;20201;-70
2023/09/21 06:56:40;;;;;;;10.52;7.28;;;16.40;99.90;;;;;;5075402;28;20651;-70
2023/09/21 06:59:07;;;;;;;10.32;7.00;;;16.50;99.90;;;;;;5075620;28;20286;-71
2023/09/21 07:01:34;;;;;;;9.38;6.80;;;16.60;99.90;;;;;;5075328;28;20291;-69
2023/09/21 07:04:01;;;;;;;11.77;7.30;;;16.80;99.90;;;;;;5075450;28;20227;-71
2023/09/21 07:06:29;;;;;;;12.75;7.03;;;16.90;99.90;;;;;;5082521;28;20197;-70
2023/09/21 07:08:57;;;;;;;8.88;6.63;;;17.10;99.90;;;;;;5075552;28;20291;-71
2023/09/21 07:11:24;;;;;;;8.98;6.45;;;17.30;99.90;;;;;;5075218;28;20204;-71
2023/09/21 07:13:51;;;;;;;8.75;6.30;;;17.40;99.90;;;;;;5075226;28;20534;-71
2023/09/21 07:16:19;;;;;;;11.52;6.22;;;17.60;99.90;;;;;;5075294;28;20204;-71
2023/09/21 07:18:47;;;;;;;6.68;6.07;;;17.90;99.90;;;;;;5075101;28;20246;-72
2023/09/21 07:21:14;;;;;;;10.50;6.32;;;18.00;99.90;;;;;;5075069;28;20197;-70
2023/09/21 07:23:42;;;;;;;6.35;5.75;;;18.10;99.90;;;;;;5074816;28;20730;-70
2023/09/21 07:26:09;;;;;;;9.20;6.68;;;18.40;99.90;;;;;;5075114;28;20221;-80
2023/09/21 07:28:35;;;;;;;6.70;6.10;;;18.60;99.90;;;;;;5074914;28;20288;-69
2023/09/21 07:31:02;;;;;;;7.07;6.38;;;18.80;99.90;;;;;;5074777;28;20205;-70
2023/09/21 07:33:30;;;;;;;6.85;5.82;;;18.90;99.90;;;;;;5074717;28;20656;-70
2023/09/21 07:35:57;;;;;;;7.68;6.03;;;19.20;99.90;;;;;;5074331;28;20628;-70
2023/09/21 07:38:24;;;;;;;6.72;5.68;;;19.20;99.90;;;;;;5074312;28;20607;-70
2023/09/21 07:40:52;;;;;;;6.47;5.57;;;19.40;99.90;;;;;;5074518;28;20278;-70
2023/09/21 07:43:18;;;;;;;5.60;5.10;;;19.60;99.90;;;;;;5074694;28;20197;-70
2023/09/21 07:45:47;;;;;;;5.35;4.85;;;19.70;99.90;;;;;;5074488;28;20602;-70
2023/09/21 07:48:15;;;;;;;5.30;4.78;;;19.80;99.90;;;;;;5074433;28;20204;-70
2023/09/21 07:50:43;;;;;;;6.03;4.85;;;20.10;99.90;;;;;;5074220;28;20549;-70
2023/09/21 07:53:09;;;;;;;7.18;5.43;;;20.20;99.90;;;;;;5074563;28;20196;-71
2023/09/21 07:55:36;;;;;;;7.10;4.97;;;20.30;99.90;;;;;;5074458;28;20262;-70
2023/09/21 07:58:05;;;;;;;5.97;4.82;;;20.50;99.90;;;;;;5074273;28;20656;-70
2023/09/21 08:00:31;;;;;;;5.63;5.00;;;20.70;99.90;;;;;;5074206;28;20286;-70
2023/09/21 08:02:58;;;;;;;6.88;4.20;;;20.80;99.90;;;;;;5074183;28;20262;-69
2023/09/21 08:05:26;;;;;;;5.45;4.80;;;20.90;99.90;;;;;;5074043;28;20197;-69
2023/09/21 08:07:52;;;;;;;5.20;4.70;;;21.20;99.90;;;;;;5074301;28;20201;-69
2023/09/21 08:10:19;;;;;;;8.35;5.15;;;21.40;99.90;;;;;;5074024;28;20270;-73
2023/09/21 08:12:46;;;;;;;6.57;5.18;;;21.50;99.90;;;;;;5074043;28;20239;-68
2023/09/21 08:15:15;;;;;;;8.43;4.80;;;21.50;99.90;;;;;;5073889;28;20205;-68
2023/09/21 08:17:42;;;;;;;7.13;4.72;;;21.60;99.90;;;;;;5073685;28;20546;-69
2023/09/21 08:20:09;;;;;;;5.70;4.32;;;21.80;99.90;;;;;;5073905;28;20251;-69
2023/09/21 08:22:37;;;;;;;5.43;4.57;;;22.00;99.90;;;;;;5073975;28;20201;-69
2023/09/21 08:25:04;;;;;;;5.43;4.05;;;22.30;99.90;;;;;;5073760;28;20284;-68
2023/09/21 08:27:31;;;;;;;7.60;4.32;;;22.40;99.90;;;;;;5073736;28;20553;-68
2023/09/21 08:29:58;;;;;;;4.22;3.78;;;22.60;99.90;;;;;;5073600;28;20599;-69
2023/09/21 08:32:26;;;;;;;5.82;4.47;;;22.80;99.90;;;;;;5073940;28;20204;-69
2023/09/21 08:34:53;;;;;;;5.28;3.80;;;22.90;99.90;;;;;;5073703;28;20287;-70
2023/09/21 08:37:20;;;;;;;4.53;3.75;;;23.10;99.90;;;;;;5073233;28;20229;-69
2023/09/21 08:39:46;;;;;;;4.03;3.50;;;23.40;99.90;;;;;;5073365;28;20619;-69
2023/09/21 08:42:14;;;;;;;3.97;3.50;;;23.60;99.90;;;;;;5073384;28;20212;-69
2023/09/21 08:44:43;;;;;;;4.05;3.47;;;23.80;99.90;;;;;;5073218;28;20226;-69
2023/09/21 08:47:15;;;;;;;5.15;3.80;;;23.80;99.90;;;;;;5073492;28;20205;-70
2023/09/21 08:49:46;;;;;;;4.90;3.50;;;24.10;99.90;;;;;;5072602;28;20201;-69
2023/09/21 08:52:14;;;;;;;5.53;3.50;;;24.30;99.90;;;;;;5073217;28;20201;-69
2023/09/21 08:54:41;;;;;;;4.30;3.85;;;24.40;99.90;;;;;;5073059;28;20250;-69
2023/09/21 08:57:11;;;;;;;4.13;3.53;;;24.50;99.90;;;;;;5072998;28;20223;-70
2023/09/21 08:59:41;;;;;;;4.97;3.95;;;24.70;99.90;;;;;;5073080;28;20236;-69
2023/09/21 09:02:11;;;;;;;5.43;3.13;;;24.30;99.90;;;;;;5073157;28;20200;-69
2023/09/21 09:04:38;;;;;;;4.28;2.83;;;24.50;99.90;;;;;;5072927;28;20205;-69
2023/09/21 09:07:06;;;;;;;4.30;3.47;;;25.00;99.90;;;;;;5072984;28;20266;-69
2023/09/21 09:09:33;;;;;;;4.07;2.90;;;25.30;99.90;;;;;;5072873;28;20718;-70
2023/09/21 09:11:59;;;;;;;6.30;3.80;;;25.50;99.90;;;;;;5073037;28;20212;-69
2023/09/21 09:14:26;;;;;;;3.25;2.83;;;25.60;99.90;;;;;;5072686;28;20564;-69
2023/09/21 09:16:52;;;;;;;3.55;3.13;;;26.00;99.90;;;;;;5072898;28;20208;-70
2023/09/21 09:19:19;;;;;;;3.28;2.97;;;26.30;99.90;;;;;;5072883;28;20201;-70
2023/09/21 09:21:45;;;;;;;4.80;2.88;;;26.40;99.90;;;;;;5072750;28;20197;-71
2023/09/21 09:24:14;;;;;;;3.78;2.90;;;26.70;99.90;;;;;;5072758;28;20201;-70
2023/09/21 09:26:42;;;;;;;4.50;3.10;;;26.90;99.90;;;;;;5072510;28;20197;-70
2023/09/21 09:29:11;;;;;;;8.32;3.40;;;27.10;98.60;;;;;;5072920;28;20229;-69
2023/09/21 09:31:41;;;;;;;3.92;2.80;;;27.30;97.50;;;;;;5072671;28;20205;-69
2023/09/21 09:34:12;;;;;;;5.05;2.83;;;27.30;94.40;;;;;;5072632;28;20197;-70
2023/09/21 09:36:41;;;;;;;4.05;2.58;;;27.70;95.90;;;;;;5072502;28;20235;-68
2023/09/21 09:39:08;;;;;;;4.50;2.50;;;28.00;94.80;;;;;;5072474;28;20201;-69
2023/09/21 09:41:36;;;;;;;4.57;2.72;;;28.30;93.40;;;;;;5072618;28;20256;-70
2023/09/21 09:44:08;;;;;;;3.45;3.00;;;28.50;92.30;;;;;;5072571;28;20247;-70
2023/09/21 09:46:36;;;;;;;2.97;2.67;;;28.70;91.30;;;;;;5072342;28;20193;-69
2023/09/21 09:49:04;;;;;;;5.53;2.50;;;28.70;91.60;;;;;;5072434;28;20201;-69
2023/09/21 09:51:40;;;;;;;6.18;3.00;;;29.00;89.80;;;;;;5071693;28;20208;-69
2023/09/21 09:54:09;;;;;;;3.88;2.50;;;29.10;87.10;;;;;;5072567;28;20196;-69
2023/09/21 09:56:41;;;;;;;5.53;2.60;;;29.50;86.90;;;;;;5072379;28;20280;-69
2023/09/21 09:59:09;;;;;;;6.18;2.65;;;29.70;86.70;;;;;;5072295;28;20192;-69
2023/09/21 10:01:37;;;;;;;2.80;2.33;;;29.60;85.80;;;;;;5073963;28;20277;-69
2023/09/21 10:04:07;;;;;;;4.18;2.70;;;29.80;84.70;;;;;;5076368;28;20228;-70
2023/09/21 10:06:35;;;;;;;4.07;2.20;;;30.00;81.50;;;;;;5076322;28;20691;-68
2023/09/21 10:09:03;;;;;;;2.72;2.50;;;30.40;79.90;;;;;;5076292;28;20200;-71
2023/09/21 10:11:31;;;;;;;2.95;2.28;;;31.10;78.90;;;;;;5076160;28;20228;-69
2023/09/21 10:14:00;;;;;;;2.70;2.40;;;31.10;79.00;;;;;;5076192;28;20197;-69
2023/09/21 10:16:27;;;;;;;2.35;2.15;;;31.40;75.80;;;;;;5075937;28;20203;-70
2023/09/21 10:18:55;;;;;;;2.70;2.50;;;31.20;73.70;;;;;;5076382;28;20201;-72
2023/09/21 10:21:26;;;;;;;2.58;2.20;;;30.70;72.40;;;;;;5076270;28;20250;-71
2023/09/21 10:24:03;;;;;;;4.13;2.05;;;31.00;72.80;;;;;;5076212;28;20247;-69
2023/09/21 10:26:33;;;;;;;3.80;2.33;;;31.20;71.10;;;;;;5075357;28;20288;-70
2023/09/21 10:29:04;;;;;;;2.50;2.30;;;31.50;69.30;;;;;;5075721;28;20287;-70
2023/09/21 10:31:32;;;;;;;2.97;2.33;;;32.10;67.10;;;;;;5075007;28;20641;-70
2023/09/21 10:34:16;;;;;;;2.78;2.22;;;32.60;63.00;;;;;;5074898;28;20227;-70
2023/09/21 10:36:45;;;;;;;6.00;2.30;;;33.00;61.40;;;;;;5075636;28;20629;-70
2023/09/21 10:39:28;;;;;;;2.20;2.00;;;33.40;56.50;;;;;;5075863;28;20196;-70
2023/09/21 10:41:56;;;;;;;2.72;2.00;;;33.60;55.00;;;;;;5075703;28;20584;-71
2023/09/21 10:45:10;;;;;;;4.93;2.67;;;33.90;55.20;;;;;;5076042;28;20196;-71
2023/09/21 10:47:47;;;;;;;3.85;2.30;;;34.70;53.90;;;;;;5039921;28;20282;-71
2023/09/21 10:50:15;;;;;;;3.45;2.38;;;35.70;53.00;;;;;;5075937;28;20199;-70
2023/09/21 10:52:44;;;;;;;2.70;2.50;;;35.50;51.70;;;;;;5075814;28;20254;-70
2023/09/21 10:55:13;;;;;;;2.42;2.10;;;35.40;50.10;;;;;;5075669;28;20246;-70
2023/09/21 10:57:41;;;;;;;2.50;2.30;;;35.30;49.70;;;;;;5075623;28;20200;-70
2023/09/21 11:00:08;;;;;;;3.92;2.22;;;35.50;49.80;;;;;;5075412;28;20204;-70
2023/09/21 11:02:37;;;;;;;3.13;2.42;;;35.90;50.00;;;;;;5075399;28;20675;-70
2023/09/21 11:05:07;;;;;;;4.10;2.50;;;36.10;49.90;;;;;;5075661;28;20201;-71
2023/09/21 11:07:34;;;;;;;4.10;2.20;;;36.60;49.00;;;;;;5075538;28;20192;-71
2023/09/21 11:10:02;;;;;;;5.35;2.50;;;36.00;44.00;;;;;;5075113;28;20200;-72
2023/09/21 11:12:29;;;;;;;3.30;2.10;;;36.40;46.00;;;;;;5074387;28;20201;-71
2023/09/21 11:14:57;;;;;;;2.75;2.22;;;36.00;42.70;;;;;;5075255;28;20200;-71
2023/09/21 11:17:24;;;;;;;2.63;2.40;;;35.90;41.50;;;;;;5075476;28;20226;-71
2023/09/21 11:19:50;;;;;;;3.15;1.90;;;36.30;41.00;;;;;;5075343;28;20261;-71
2023/09/21 11:22:18;;;;;;;5.40;2.22;;;37.50;38.80;;;;;;5075281;28;20196;-71
2023/09/21 11:24:46;;;;;;;3.13;2.50;;;38.00;39.20;;;;;;5075124;28;20204;-71
2023/09/21 11:27:14;;;;;;;2.40;2.20;;;38.40;38.20;;;;;;5075046;28;20224;-71
2023/09/21 11:29:43;;;;;;;3.92;2.03;;;38.10;33.20;;;;;;5075329;28;20197;-72
2023/09/21 11:32:15;;;;;;;2.30;2.10;;;38.40;33.30;;;;;;5075061;28;20224;-71
2023/09/21 11:34:41;;;;;;;2.28;2.08;;;38.90;34.10;;;;;;5074959;28;20551;-71
2023/09/21 11:37:09;;;;;;;2.47;2.28;;;39.10;33.80;;;;;;5074680;28;20220;-72
2023/09/21 11:39:38;;;;;;;3.85;2.40;;;39.60;32.80;;;;;;5074823;28;20196;-72
2023/09/21 11:42:08;;;;;;;2.20;2.10;;;39.60;30.80;;;;;;5075052;28;20200;-71
2023/09/21 11:44:36;;;;;;;3.72;2.40;;;39.60;30.60;;;;;;5074955;28;20196;-71
2023/09/21 11:47:03;;;;;;;3.75;2.33;;;39.40;31.50;;;;;;5074702;28;20562;-71
2023/09/21 11:49:40;;;;;;;2.15;2.00;;;39.20;31.50;;;;;;5074787;28;20235;-71
2023/09/21 11:52:07;;;;;;;2.47;2.10;;;39.40;31.90;;;;;;5074471;28;20682;-72
2023/09/21 11:54:35;;;;;;;4.03;2.08;;;39.10;31.20;;;;;;5074809;28;20262;-71
2023/09/21 11:57:04;;;;;;;5.82;1.90;;;38.00;32.50;;;;;;5074460;28;20656;-71
2023/09/21 11:59:36;;;;;;;2.20;1.95;;;37.70;32.90;;;;;;5074679;28;20287;-71
2023/09/21 12:02:09;;;;;;;3.17;2.20;;;38.90;31.50;;;;;;5074491;28;20200;-71
2023/09/21 12:04:38;;;;;;;2.90;2.15;;;38.80;29.80;;;;;;5074440;28;20287;-72
2023/09/21 12:07:06;;;;;;;2.70;2.40;;;38.80;30.80;;;;;;5074262;28;20257;-71
2023/09/21 12:09:36;;;;;;;2.47;2.22;;;39.40;30.30;;;;;;5074415;28;20287;-71
2023/09/21 12:12:06;;;;;;;4.40;2.47;;;39.40;29.70;;;;;;5074245;28;20220;-72
2023/09/21 12:14:33;;;;;;;5.15;2.67;;;38.10;30.20;;;;;;5074127;28;20203;-71
2023/09/21 12:17:04;;;;;;;5.95;2.58;;;39.10;30.50;;;;;;5074039;28;20686;-71
2023/09/21 12:19:32;;;;;;;2.83;2.30;;;38.90;30.30;;;;;;5074017;28;20228;-70
2023/09/21 12:21:59;;;;;;;2.30;2.10;;;39.70;30.30;;;;;;5073733;28;20224;-71
2023/09/21 12:24:26;;;;;;;2.45;2.10;;;39.50;29.90;;;;;;5073621;28;20548;-71
2023/09/21 12:26:53;;;;;;;2.55;2.30;;;40.00;29.60;;;;;;5073888;28;20196;-71
2023/09/21 12:29:22;;;;;;;4.15;2.40;;;39.00;29.50;;;;;;5073729;28;20670;-71
2023/09/21 12:31:50;;;;;;;2.72;2.30;;;38.10;31.00;;;;;;5073468;28;20307;-70
2023/09/21 12:34:16;;;;;;;3.95;2.35;;;37.70;31.30;;;;;;5073702;28;20239;-72
2023/09/21 12:36:48;;;;;;;2.42;2.05;;;37.00;32.00;;;;;;5073459;28;20220;-71
2023/09/21 12:39:15;;;;;;;2.70;1.90;;;36.50;29.90;;;;;;5073673;28;20200;-71
2023/09/21 12:41:43;;;;;;;3.53;2.30;;;37.90;29.30;;;;;;5073597;28;20208;-71
2023/09/21 12:44:10;;;;;;;4.18;1.70;;;39.10;28.90;;;;;;5073436;28;20232;-73
2023/09/21 12:46:38;;;;;;;2.67;1.73;;;37.60;26.60;;;;;;5073409;28;20197;-72